• Join FlightAware (Why Join?)
  • Login
  • US Flag 
08:13PM EDT


 

Airport Tracker/Info


-or-


 

Live Flight TrackerFlight Track Log ✈ SAS2537 ✈ 28-Oct-2013 ✈ EKCH / CPH - EIDW / DUB

Flight Track Log - Related Links

Times and Time Zones

All times are in EDT time to prevent confusion due to time zone crossing. See the SAS2537 flight status page for this flight to view local times or setup timezone preferences in your user account.

Time Position Orientation Groundspeed Altitude Reporting Facility
EDT Latitude Longitude Course Direction KTS MPH feet Rate Location/Type
04:47PM 55.6090 12.6290 180° South 125 144  Level FlightAware
04:47PM 55.5986 12.6135 220° Southwest 160 184 900 2,820 Climbing FlightAware ADS-B (ESMN)
04:48PM 55.5873 12.5960 221° Southwest 148 170 1,900 2,220 Climbing FlightAware ADS-B (ESMN)
04:48PM 55.5681 12.5661 221° Southwest 177 204 3,000 1,500 Climbing FlightAware ADS-B (ESMN)
04:49PM 55.5579 12.5412 234° Southwest 202 232 3,300 1,200 Climbing FlightAware ADS-B (ESMN)
04:49PM 55.5575 12.5237 268° West 210 242 3,600 1,500 Climbing FlightAware ADS-B (ESMN)
04:49PM 55.5590 12.4872 274° West 236 272 4,100 1,560 Climbing FlightAware ADS-B (ESMN)
04:50PM 55.5615 12.4430 276° West 260 299 4,700 2,220 Climbing FlightAware ADS-B (ESMN)
04:50PM 55.5638 12.4024 276° West 267 307 5,600 3,360 Climbing FlightAware ADS-B (ESMN)
04:50PM 55.5660 12.3575 275° West 264 304 7,000 3,180 Climbing FlightAware ADS-B (ESMN)
04:51PM 55.5681 12.3117 275° West 268 308 7,900 2,820 Climbing FlightAware ADS-B (ESMN)
04:51PM 55.5704 12.2622 275° West 273 314 9,100 3,300 Climbing FlightAware ADS-B (ESMN)
04:52PM 55.5737 12.1930 275° West 264 304 10,900 3,060 Climbing FlightAware ADS-B (ESMN)
04:52PM 55.5775 12.1074 275° West 274 315 12,700 2,220 Climbing FlightAware ADS-B (ESMN)
04:53PM 55.5808 12.0276 274° West 296 341 13,700 1,920 Climbing FlightAware ADS-B (ESMN)
04:53PM 55.5837 11.9306 273° West 308 354 15,100 1,680 Climbing FlightAware ADS-B (ESMN)
04:54PM 55.5832 11.8418 269° West 329 379 15,900 1,680 Climbing FlightAware ADS-B (ESMN)
04:55PM 55.5830 11.7250 270° West 338 389 17,300 2,100 Climbing FlightAware ADS-B (ESMN)
04:55PM 55.5833 11.6206 270° West 343 395 18,700 1,920 Climbing FlightAware ADS-B (ESMN)
04:56PM 55.5834 11.5338 270° West 352 405 19,500 1,740 Climbing FlightAware ADS-B (ESMN)
04:56PM 55.5834 11.4455 270° West 357 411 20,500 2,220 Climbing FlightAware ADS-B (ESMN)
04:57PM 55.5835 11.3596 270° West 349 402 21,800 2,400 Climbing FlightAware ADS-B (ESMN)
04:57PM 55.5841 11.2737 271° West 344 396 23,000 1,920 Climbing FlightAware ADS-B (ESMN)
04:58PM 55.5903 11.1894 277° West 350 403 23,800 1,560 Climbing FlightAware ADS-B (ESMN)
04:58PM 55.5965 11.1080 278° West 351 404 24,600 1,440 Climbing FlightAware ADS-B (ESMN)
04:59PM 55.6009 11.0470 277° West 353 406 25,000 1,500 Climbing FlightAware ADS-B
04:59PM 55.6071 10.9630 277° West 350 403 25,900 1,500 Climbing FlightAware ADS-B (ESMN)
05:00PM 55.6134 10.8752 277° West 354 407 26,600 1,020 Climbing FlightAware ADS-B
05:00PM 55.6199 10.7838 277° West 360 414 27,000 780 Climbing FlightAware ADS-B
05:01PM 55.6265 10.6882 277° West 366 421 27,400 660 Climbing FlightAware ADS-B
05:01PM 55.6324 10.6038 277° West 373 429 27,700 780 Climbing FlightAware ADS-B (ESMN)
05:02PM 55.6393 10.5053 277° West 377 434 28,200 1,080 Climbing FlightAware ADS-B
05:02PM 55.6430 10.4175 274° West 365 420 28,800 1,140 Climbing FlightAware ADS-B
05:03PM 55.6380 10.3273 264° West 361 415 29,400 960 Climbing FlightAware ADS-B
05:03PM 55.6312 10.2232 263° West 365 420 29,900 720 Climbing FlightAware ADS-B (ESMN)
05:04PM 55.6231 10.1166 262° West 368 423 30,300 960 Climbing FlightAware ADS-B
05:04PM 55.6159 10.0267 262° West 364 419 31,000 1,020 Climbing FlightAware ADS-B
05:05PM 55.6089 9.9391 262° West 365 420 31,400 1,080 Climbing FlightAware ADS-B (ESMN)
05:06PM 55.6015 9.8401 263° West 361 415 32,200 1,020 Climbing FlightAware ADS-B (ESMN)
05:06PM 55.5951 9.7454 263° West 367 422 32,500 1,080 Climbing FlightAware ADS-B (ESMN)
05:07PM 55.5884 9.6457 263° West 357 411 33,400 1,440 Climbing FlightAware ADS-B
05:07PM 55.5823 9.5435 264° West 357 411 34,200 780 Climbing FlightAware ADS-B (ESMN)
05:08PM 55.5884 9.4524 277° West 373 429 34,300 240 Climbing FlightAware ADS-B (ESMN)
05:08PM 55.5948 9.3683 278° West 379 436 34,500 360 Climbing FlightAware ADS-B (ESMN)
05:09PM 55.6023 9.2657 277° West 384 442 34,700 240 Climbing FlightAware ADS-B (ESMN)
05:09PM 55.6093 9.1695 277° West 390 449 34,800 240 Climbing FlightAware ADS-B (ESMN)
05:10PM 55.6171 9.0633 277° West 396 456 35,000 480 Climbing FlightAware ADS-B
05:10PM 55.6199 9.0251 277° West 396 456 35,200 720 Climbing FlightAware ADS-B
05:11PM 55.6281 8.9129 277° West 394 453 35,600 480 Climbing FlightAware ADS-B (ESMN)
05:11PM 55.6350 8.8220 278° West 396 456 35,700 360 Climbing FlightAware
05:11PM 55.6321 8.8572 98° East 397 457 35,900 300 Climbing FlightAware ADS-B (ESMN)
05:12PM 55.6473 8.6359 277° West 398 458 36,000 60 Climbing FlightAware ADS-B (ESMN)
05:13PM 55.6531 8.5522 277° West 397 457 36,000  Level FlightAware ADS-B (ESMN)
05:13PM 55.6635 8.3971 277° West 402 463 36,000  Level FlightAware ADS-B (ESMN)
05:14PM 55.6710 8.2810 277° West 397 457 36,000  Level FlightAware
05:14PM 55.6770 8.1850 276° West 393 452 36,000  Level FlightAware
05:15PM 55.6834 8.0948 277° West 391 450 36,000  Level FlightAware ADS-B (ESMN)
05:16PM 55.6906 7.9808 276° West 389 448 36,000  Level FlightAware ADS-B (ESMN)
05:16PM 55.7017 7.7993 276° West 393 452 36,000  Level FlightAware ADS-B (ESMN)
05:17PM 55.7080 7.6940 276° West 397 457 36,000  Level FlightAware
05:18PM 55.7190 7.5110 276° West 398 458 36,000  Level FlightAware
05:18PM 55.7250 7.4110 276° West 401 461 36,000  Level FlightAware
05:19PM 55.7310 7.3090 276° West 404 465 36,000  Level FlightAware
05:20PM 55.7420 7.1160 276° West 409 471 36,000  Level FlightAware
05:20PM 55.7480 6.9990 275° West 408 470 36,000  Level FlightAware
05:21PM 55.7560 6.8700 276° West 410 472 36,000  Level FlightAware
05:22PM 55.7630 6.7380 275° West 413 475 36,000  Level FlightAware
05:22PM 55.7690 6.6140 275° West 413 475 36,000  Level FlightAware
05:23PM 55.7750 6.4900 275° West 414 476 36,000 -120 Level FlightAware
05:24PM 55.7808 6.3546 275° West 1 1 35,900  Descending FlightAware UK
05:24PM 55.7850 6.3000 275° West 416 479 36,000 60 Climbing FlightAware
05:25PM 55.7950 6.0840 275° West 419 482 36,000 -120 Level FlightAware
05:25PM 55.7939 6.0705 275° West 1 1 35,900  Descending FlightAware UK
05:25PM 55.8000 5.9740 275° West 420 483 36,000 180 Climbing FlightAware
05:26PM 55.7985 5.9684 275° West 1 1 36,000  Level FlightAware UK
05:26PM 55.8055 5.8616 275° West 1 1 36,000  Level FlightAware UK
05:26PM 55.8090 5.7950 275° West 420 483 36,000  Level FlightAware
05:27PM 55.8151 5.6549 275° West 1 1 36,000  Level FlightAware UK
05:27PM 55.8160 5.6340 275° West 420 483 36,000  Level FlightAware
05:28PM 55.8222 5.4899 275° West 466 536 36,000  Level FlightAware UK
05:28PM 55.8220 5.4900 275° West 420 483 36,000  Level FlightAware
05:28PM 55.8265 5.3869 275° West 464 534 36,000  Level FlightAware UK
05:29PM 55.8290 5.3180 275° West 420 483 36,000  Level FlightAware
05:29PM 55.8340 5.1950 274° West 421 484 36,000 -120 Level FlightAware
05:30PM 55.8407 5.0362 274° West 462 532 35,900  Descending FlightAware UK
05:30PM 55.8430 4.9770 274° West 423 487 36,000 120 Climbing FlightAware
05:31PM 55.8460 4.8750 273° West 425 489 36,000  Level FlightAware
05:31PM 55.8500 4.7910 275° West 426 490 36,000  Level FlightAware
05:32PM 55.8550 4.6330 273° West 423 487 36,000  Level FlightAware
05:32PM 55.8580 4.5580 273° West 423 487 36,000  Level FlightAware
05:33PM 55.8596 4.5158 273° West 464 534 36,000 -120 Level FlightAware UK
05:33PM 55.8659 4.3278 273° West 464 534 35,900  Descending FlightAware UK
05:34PM 55.8670 4.2870 273° West 425 489 36,000 120 Climbing FlightAware
05:34PM 55.8710 4.1680 273° West 425 489 36,000 -120 Level FlightAware
05:35PM 55.8774 3.9512 273° West 468 539 35,900  Descending FlightAware UK
05:35PM 55.8780 3.9400 273° West 427 491 36,000 60 Climbing FlightAware
05:36PM 55.8839 3.7405 273° West 470 541 36,000  Level FlightAware UK
05:36PM 55.8840 3.7320 273° West 426 490 36,000  Level FlightAware
05:37PM 55.8880 3.6040 273° West 423 487 36,000  Level FlightAware
05:37PM 55.8910 3.4810 273° West 423 487 36,000  Level FlightAware
05:38PM 55.8940 3.3750 273° West 422 486 36,000  Level FlightAware
05:39PM 55.8970 3.2450 272° West 420 483 36,000  Level FlightAware
05:39PM 55.8990 3.1580 272° West 420 483 36,000 -120 Level FlightAware
05:40PM 55.9032 2.9516 272° West 462 532 35,900  Descending FlightAware UK
05:40PM 55.9040 2.9370 272° West 420 483 36,000  Climbing FlightAware
05:41PM 55.9081 2.7254 272° West 462 532 35,900  Descending FlightAware UK
05:41PM 55.9090 2.7030 272° West 420 483 36,000 120 Climbing FlightAware
05:42PM 55.9110 2.6020 272° West 420 483 36,000  Level FlightAware
05:42PM 55.9120 2.5332 272° West 420 483 36,000  Level FlightAware ADS-B (EGPD / ABZ)
05:43PM 55.9140 2.4020 272° West 420 483 36,000 -180 Level FlightAware
05:43PM 55.9144 2.3953 272° West 464 534 35,900  Descending FlightAware UK
05:43PM 55.9160 2.3140 272° West 420 483 36,000  Climbing FlightAware
05:43PM 55.9161 2.2920 272° West 464 534 35,900 -240 Descending FlightAware UK
05:44PM 55.9176 2.1884 272° West 462 532 35,900 120 Level FlightAware UK
05:44PM 55.9180 2.1670 272° West 422 486 36,000 240 Climbing FlightAware
05:44PM 55.9189 2.1038 272° West 423 487 36,000  Level FlightAware ADS-B
05:45PM 55.9210 1.9750 272° West 424 488 36,000  Level FlightAware
05:45PM 55.9223 1.8600 271° West 425 489 36,000  Level FlightAware ADS-B (EGPD / ABZ)
05:46PM 55.9237 1.7549 271° West 426 490 36,000  Level FlightAware ADS-B (EGPD / ABZ)
05:46PM 55.9253 1.6290 271° West 426 490 36,000  Level FlightAware ADS-B (EGPD / ABZ)
05:47PM 55.9264 1.5218 271° West 423 487 36,000  Level FlightAware ADS-B (EGPD / ABZ)
05:47PM 55.9275 1.4180 271° West 421 484 36,000  Level FlightAware ADS-B (EGPD / ABZ)
05:48PM 55.9282 1.3122 271° West 422 486 36,000  Level FlightAware ADS-B (EGPD / ABZ)
05:48PM 55.9290 1.2082 271° West 419 482 36,000  Level FlightAware ADS-B (EGPD / ABZ)
05:49PM 55.9300 1.0846 271° West 420 483 36,000  Level FlightAware ADS-B
05:50PM 55.9305 0.9798 270° West 420 483 36,000  Level FlightAware ADS-B
05:50PM 55.9310 0.8684 271° West 422 486 36,000  Level FlightAware ADS-B (EGPD / ABZ)
05:51PM 55.9316 0.7559 271° West 422 486 36,000  Level FlightAware ADS-B
05:51PM 55.9321 0.6083 270° West 423 487 36,000  Level FlightAware ADS-B
05:52PM 55.9323 0.5036 270° West 460 529 36,000  Level FlightAware UK
05:52PM 55.9324 0.4927 270° West 424 488 36,000  Level FlightAware ADS-B
05:52PM 55.9324 0.3790 270° West 458 527 36,000  Level FlightAware UK
05:52PM 55.9324 0.3758 270° West 425 489 36,000  Level FlightAware ADS-B
05:53PM 55.9326 0.2642 270° West 426 490 36,000  Level FlightAware ADS-B
05:53PM 55.9325 0.1686 270° West 426 490 36,000  Level FlightAware ADS-B
05:54PM 55.9324 0.0525 270° West 428 493 36,000  Level FlightAware ADS-B
05:54PM 55.9321 -0.0595 270° West 427 491 36,000  Level FlightAware ADS-B (EGPD / ABZ)
05:55PM 55.9319 -0.1647 270° West 427 491 36,000  Level FlightAware ADS-B (EGPD / ABZ)
05:55PM 55.9314 -0.2350 269° West 427 491 36,000  Level FlightAware ADS-B (EGPD / ABZ)
05:56PM 55.9284 -0.2783 263° West 425 489 36,000  Level FlightAware ADS-B
05:56PM 55.9245 -0.3035 255° West 422 486 36,000  Level FlightAware ADS-B (EGPD / ABZ)
05:56PM 55.9154 -0.3492 250° West 425 489 36,000  Level FlightAware ADS-B
05:56PM 55.8925 -0.4661 251° West 426 490 36,000  Level FlightAware ADS-B
05:57PM 55.8715 -0.5755 251° West 425 489 36,000  Level FlightAware ADS-B (EGPD / ABZ)
05:57PM 55.8670 -0.5988 251° West 427 491 36,000  Level FlightAware ADS-B
05:58PM 55.8451 -0.7131 251° West 428 493 36,000  Level FlightAware ADS-B (EGPD / ABZ)
05:58PM 55.8254 -0.8142 251° West 429 494 36,000  Level FlightAware ADS-B (EGPD / ABZ)
05:58PM 55.8159 -0.8633 251° West 429 494 36,000  Level FlightAware ADS-B
05:59PM 55.8138 -0.8744 251° West 429 494 36,000  Level FlightAware ADS-B
05:59PM 55.7902 -0.9952 251° West 430 495 36,000  Level FlightAware ADS-B (EGPD / ABZ)
06:00PM 55.7699 -1.0988 251° West 430 495 36,000  Level FlightAware ADS-B (EGPD / ABZ)
06:00PM 55.7500 -1.2020 251° West 432 497 36,000  Level FlightAware
06:00PM 55.7408 -1.2468 250° West 433 498 36,000  Level FlightAware ADS-B (EGPD / ABZ)
06:01PM 55.7209 -1.3465 251° West 433 498 36,000  Level FlightAware ADS-B (EGPD / ABZ)
06:01PM 55.6991 -1.4549 250° West 431 496 36,000  Level FlightAware ADS-B
06:02PM 55.6768 -1.5662 250° West 431 496 36,000  Level FlightAware ADS-B
06:03PM 55.6526 -1.6858 250° West 460 529 36,000  Level FlightAware UK
06:03PM 55.6500 -1.6984 250° West 429 494 36,000  Level FlightAware ADS-B
06:03PM 55.6301 -1.7960 250° West 430 495 36,000  Level FlightAware ADS-B
06:04PM 55.6009 -1.9274 249° West 430 495 36,000  Level FlightAware ADS-B
06:04PM 55.5727 -2.0183 241° Southwest 432 497 36,000  Level FlightAware ADS-B
06:04PM 55.5653 -2.0423 241° Southwest 429 494 36,000  Level FlightAware ADS-B
06:05PM 55.5340 -2.1440 241° Southwest 434 499 36,000  Level FlightAware ADS-B
06:05PM 55.5050 -2.2374 241° Southwest 436 502 36,000  Level FlightAware ADS-B
06:06PM 55.4772 -2.3272 241° Southwest 435 501 36,000 60 Level FlightAware ADS-B
06:07PM 55.4469 -2.4244 241° Southwest 434 499 36,100  Climbing FlightAware ADS-B (EGGP / LPL)
06:07PM 55.4113 -2.5378 241° Southwest 433 498 36,000 -120 Descending FlightAware ADS-B (EGGP / LPL)
06:08PM 55.3811 -2.6335 241° Southwest 431 496 36,000  Level FlightAware ADS-B (EGGP / LPL)
06:08PM 55.3509 -2.7289 241° Southwest 431 496 36,000  Level FlightAware ADS-B
06:09PM 55.3137 -2.8463 241° Southwest 432 497 36,000  Level FlightAware ADS-B
06:09PM 55.2861 -2.9328 241° Southwest 432 497 36,000  Level FlightAware ADS-B
06:10PM 55.2507 -3.0426 241° Southwest 433 498 36,000  Level FlightAware ADS-B
06:10PM 55.2148 -3.1542 241° Southwest 434 499 36,000  Level FlightAware ADS-B
06:11PM 55.2010 -3.1969 241° Southwest 435 501 36,000  Level FlightAware ADS-B (EGGP / LPL)
06:11PM 55.1675 -3.3002 240° Southwest 437 503 36,000  Level FlightAware ADS-B
06:12PM 55.1478 -3.3607 240° Southwest 436 502 36,000 60 Level FlightAware ADS-B (EGGP / LPL)
06:12PM 55.0998 -3.5083 240° Southwest 434 499 36,100  Climbing FlightAware ADS-B (EGOS)
06:13PM 55.0667 -3.6094 240° Southwest 432 497 36,000 -180 Descending FlightAware ADS-B
06:13PM 55.0590 -3.6330 240° Southwest 432 497 36,000  Level FlightAware ADS-B (EGOS)
06:14PM 55.0351 -3.7053 240° Southwest 431 496 36,000  Level FlightAware ADS-B (EGOS)
06:14PM 55.0000 -3.8114 240° Southwest 431 496 36,000 -120 Level FlightAware ADS-B (EGOS)
06:15PM 54.9656 -3.9150 240° Southwest 454 522 35,900  Descending FlightAware UK
06:15PM 54.9819 -3.8659 240° Southwest 431 496 36,000 180 Climbing FlightAware ADS-B (EGGP / LPL)
06:15PM 54.9405 -3.9901 240° Southwest 432 497 36,000 -120 Level FlightAware ADS-B (EGOS)
06:16PM 54.8998 -4.1114 240° Southwest 456 525 35,900  Descending FlightAware UK
06:16PM 54.8980 -4.1180 240° Southwest 428 493 36,000 180 Climbing FlightAware
06:16PM 54.8687 -4.2038 239° Southwest 429 494 36,000  Level FlightAware ADS-B
06:17PM 54.8301 -4.3184 240° Southwest 434 499 36,000  Level FlightAware ADS-B (EGOS)
06:17PM 54.8083 -4.3825 240° Southwest 434 499 36,000  Level FlightAware ADS-B (EGOS)
06:18PM 54.7769 -4.4749 240° Southwest 429 494 36,000 -240 Level FlightAware ADS-B
06:18PM 54.7440 -4.5715 239° Southwest 417 480 35,800 -1,200 Descending FlightAware ADS-B (EGOS)
06:19PM 54.7155 -4.6553 240° Southwest 411 473 34,800 -2,520 Descending FlightAware ADS-B (EGOS)
06:19PM 54.6783 -4.7630 240° Southwest 442 509 33,000 -2,940 Descending FlightAware UK
06:19PM 54.6770 -4.7667 240° Southwest 419 482 32,900 -2,880 Descending FlightAware ADS-B (EGOS)
06:20PM 54.6442 -4.8605 239° Southwest 421 484 31,400 -2,940 Descending FlightAware ADS-B (EGOS)
06:21PM 54.6125 -4.9517 239° Southwest 442 509 29,800 -3,060 Descending FlightAware UK
06:21PM 54.6169 -4.9388 239° Southwest 423 487 28,700 -2,640 Descending FlightAware ADS-B (EGGP / LPL)
06:21PM 54.5821 -5.0385 239° Southwest 432 497 28,500 -2,040 Descending FlightAware UK
06:22PM 54.5519 -5.1246 239° Southwest 428 493 27,400 -2,280 Descending FlightAware UK
06:22PM 54.5296 -5.1761 232° Southwest 413 475 26,600 -2,400 Descending FlightAware ADS-B
06:22PM 54.5172 -5.2021 232° Southwest 420 483 26,200 -2,460 Descending FlightAware UK
06:23PM 54.4824 -5.2645 227° Southwest 407 468 25,100 -1,920 Descending FlightAware ADS-B
06:23PM 54.4386 -5.3278 227° Southwest 389 448 24,400 -1,500 Descending FlightAware ADS-B
06:23PM 54.4346 -5.3334 227° Southwest 394 453 24,300 -2,100 Descending FlightAware UK
06:24PM 54.3894 -5.3845 227° Southwest 388 447 23,300 -1,860 Descending FlightAware UK
06:24PM 54.3759 -5.3975 227° Southwest 386 444 23,100 -1,860 Descending FlightAware ADS-B
06:24PM 54.3080 -5.4560 207° Southwest 377 434 21,700 -2,100 Descending FlightAware
06:25PM 54.2536 -5.5012 206° Southwest 365 420 20,400 -2,340 Descending FlightAware ADS-B
06:26PM 54.2023 -5.5444 206° Southwest 366 421 19,100 -2,280 Descending FlightAware UK
06:26PM 54.2034 -5.5434 206° Southwest 369 425 19,000 -1,860 Descending FlightAware ADS-B
06:26PM 54.1487 -5.5890 206° Southwest 363 418 18,000 -2,040 Descending FlightAware ADS-B
06:27PM 54.0904 -5.6373 206° Southwest 354 407 16,600 -2,100 Descending FlightAware ADS-B
06:27PM 54.0472 -5.6733 206° Southwest 350 403 15,600 -1,980 Descending FlightAware ADS-B
06:28PM 53.9997 -5.7127 206° Southwest 344 396 14,600 -2,100 Descending FlightAware ADS-B
06:28PM 53.9622 -5.7404 203° Southwest 348 400 13,600 -2,220 Descending FlightAware ADS-B
06:29PM 53.9390 -5.7443 186° South 350 403 13,100 -1,740 Descending FlightAware ADS-B
06:29PM 53.8738 -5.7479 182° South 336 387 12,000 -1,380 Descending FlightAware ADS-B
06:30PM 53.8278 -5.7508 182° South 321 369 11,500 -1,440 Descending FlightAware ADS-B
06:30PM 53.7785 -5.7546 183° South 316 364 10,500 -1,680 Descending FlightAware ADS-B
06:31PM 53.7480 -5.7568 183° South 316 364 10,000 -1,680 Descending FlightAware ADS-B
06:31PM 53.7182 -5.7589 182° South 314 361 9,400 -1,920 Descending FlightAware ADS-B
06:31PM 53.6841 -5.7612 182° South 314 361 8,600 -1,800 Descending FlightAware ADS-B
06:32PM 53.6552 -5.7631 182° South 311 358 8,100 -1,500 Descending FlightAware ADS-B
06:32PM 53.6261 -5.7674 185° South 306 352 7,600 -1,500 Descending FlightAware ADS-B
06:33PM 53.5860 -5.7999 185° South 284 327 6,800 -1,200 Descending FlightAware UK
06:33PM 53.5646 -5.8171 205° Southwest 274 315 6,600 -540 Descending FlightAware UK
06:33PM 53.5590 -5.8210 205° Southwest 276 318 6,600 -600 Level FlightAware
06:33PM 53.5430 -5.8330 204° Southwest 270 311 6,400 -900 Descending FlightAware
06:34PM 53.5210 -5.8510 206° Southwest 260 299 6,100 -1,200 Descending FlightAware
06:34PM 53.4852 -5.8795 206° Southwest 248 285 5,400 -1,320 Descending FlightAware UK
06:34PM 53.4860 -5.8790 206° Southwest 258 297 5,400 -1,080 Level FlightAware
06:35PM 53.4570 -5.9020 205° Southwest 254 292 4,900 -1,200 Descending FlightAware
06:35PM 53.4330 -5.9210 205° Southwest 253 291 4,400 -1,440 Descending FlightAware
06:35PM 53.4080 -5.9580 221° Southwest 226 260 3,700 -1,200 Descending FlightAware
06:36PM 53.4060 -5.9820 262° West 212 244 3,500 -540 Descending FlightAware
06:36PM 53.4080 -6.0280 274° West 183 211 3,300 -720 Descending FlightAware
06:37PM 53.4100 -6.0690 275° West 168 193 2,800 -960 Descending FlightAware
06:37PM 53.4124 -6.1093 276° West 152 175 2,300 -840 Descending FlightAware ADS-B (EIDW / DUB)
06:38PM 53.4136 -6.1305 275° West 135 155 2,100 -780 Descending FlightAware ADS-B (EIDW / DUB)
06:38PM 53.4147 -6.1509 275° West 128 147 1,800 -780 Descending FlightAware ADS-B (EIDW / DUB)
06:38PM 53.4158 -6.1698 275° West 127 146 1,600 -780 Descending FlightAware ADS-B (EIDW / DUB)
06:39PM 53.4171 -6.1924 276° West 128 147 1,300 -720 Descending FlightAware ADS-B (EIDW / DUB)
06:39PM 53.4182 -6.2123 275° West 129 148 1,100 -780 Descending FlightAware ADS-B (EIDW / DUB)
06:39PM 53.4193 -6.2326 275° West 131 151 800 -600 Descending FlightAware ADS-B (EIDW / DUB)
06:40PM 53.4210 -6.2540 278° West 133 153 500 -300 Descending FlightAware
06:40PM 53.4210 -6.2780 270° West 133 153 500  Level FlightAware